Grand Rapids, MN

9:44 AM CDT on August 30, 2014 (GMT -0500)
Longville Municipal | Change Station
CLOSE
Current Station
Airport
Location: Longville,
Elevation: 1335 ft
Nearby Weather Stations

Elev 1335 ft 46.99 °N, 94.20 °W | Updated 9 minutes ago

Overcast
Overcast
57 °F
Feels Like 57 °F
N
0
Wind Variable Wind from North

Today
High -- | Low -- °F
--% Chance of Precip.
Yesterday
High -- | Low -- °F
Precip. -- in
6:30 AM 7:57 PM
Waxing Crescent, 22% visible
Pressure 29.89 in
Visibility 10.0 miles
Clouds Overcast 400 ft
Dew Point 57 °F
Humidity 100%
Rainfall 0.00 in
Snow Depth Not available.
UV 1 out of 12
Pollen 8.80 out of 12
Air Quality Not available.
Flu Activity Not available.
METAR KXVG 301435Z AUTO 00000KT 10SM OVC004 14/14 A2989 RMK AO2

More Conditions Fewer Conditions

Pressure 29.89 in
Visibility 10.0 miles
Clouds Overcast 400 ft
Dew Point 57 °F
Humidity 100%
Rainfall 0.00 in
Snow Depth Not available.
UV 1 out of 12
Pollen 8.80 out of 12
Air Quality Not available.
Flu Activity Not available.
METAR KXVG 301435Z AUTO 00000KT 10SM OVC004 14/14 A2989 RMK AO2

More Conditions Fewer Conditions

10-Day Weather Forecast

Almanac

Astronomy

Aug. 30, 2014 Rise Set
Actual Time 6:30 AM CDT 7:57 PM CDT
Civil Twilight 5:58 AM CDT 8:29 PM CDT
Nautical Twilight 5:19 AM CDT 9:08 PM CDT
Astronomical Twilight 4:38 AM CDT 9:49 PM CDT
Moon 11:40 AM CDT 10:09 PM CDT
Length of Visible Light 14h 30m
Length of Day
13h 27m
Tomorrow will be 3m 16s shorter.
Waxing Crescent, 22% of the Moon is Illuminated
Today
Waxing Crescent
Sep 2
First Quarter
Sep 8
Full
Sep 15
Last Quarter
Sep 24
New

Today's Extremes

State Highs State Lows

Community

WunderPhotos

Upload Photos

1,748,528 photos uploaded!

WunderBlogs® & News

Nearby

Snow Depth

Station Depth Elevation
No new snow has been reported.

Earthquake Activity

City Distance Mag. Time & Date
No recent earthquake activity has been reported nearby.
Minimum magnitude displayed is 2.5.

Coastal Water Temperatures

Place Temperature
No Stations Reporting

Nearby Weather Stations